MQC45H EDDK-DTMB
Flight info
| Callsign | MQC45H |
|---|---|
| Flight time | 2h 22m |
| Altitude | 34000 |
| Route | KUMIK1R KUMIK Y854 BOMBI DCT GIGET DCT ABUKA/N0437F310 DCT BATUB/N0449F390 DCT TIRUL M738 NATAG DCT UNTAD DCT ADOSA DCT TIPNI DCT PININ DCT TUNEX UG737 CBN UG727 DIDON G727 ATLEL ATLEL1R |
| Aircraft | B738/M-SDE2E3FGHIRWXY/LB1 |
Departure
| Time | 2026-04-20 05:29 |
|---|---|
| Airport | Cologne Bonn Airport (EDDK) |
Arrival
| Time | 2026-04-20 07:52 |
|---|---|
| Airport | Monastir Habib Bourguiba International Airport (DTMB) |
| Time | Latitude | Longitude | Altitude | Speed | Heading |
|---|---|---|---|---|---|
| 2026-04-20 05:04 | 50.87177 | 7.13414 | 239 ft | 0 kts | 177° |
| 2026-04-20 05:20 | 50.87171 | 7.13420 | 236 ft | 3 kts | 144° |
| 2026-04-20 05:20 | 50.87166 | 7.13453 | 237 ft | 4 kts | 96° |
| 2026-04-20 05:21 | 50.87162 | 7.13514 | 237 ft | 7 kts | 96° |
| 2026-04-20 05:21 | 50.87144 | 7.13593 | 238 ft | 9 kts | 133° |
| 2026-04-20 05:21 | 50.87099 | 7.13670 | 240 ft | 11 kts | 132° |
| 2026-04-20 05:21 | 50.87041 | 7.13764 | 241 ft | 13 kts | 137° |
| 2026-04-20 05:22 | 50.86969 | 7.13870 | 242 ft | 16 kts | 136° |
| 2026-04-20 05:22 | 50.86885 | 7.13999 | 244 ft | 17 kts | 135° |
| 2026-04-20 05:22 | 50.86795 | 7.14118 | 249 ft | 17 kts | 142° |
| 2026-04-20 05:22 | 50.86702 | 7.14221 | 254 ft | 16 kts | 150° |
| 2026-04-20 05:23 | 50.86611 | 7.14316 | 257 ft | 15 kts | 145° |
| 2026-04-20 05:23 | 50.86525 | 7.14411 | 257 ft | 15 kts | 145° |
| 2026-04-20 05:23 | 50.86446 | 7.14510 | 260 ft | 14 kts | 141° |
| 2026-04-20 05:23 | 50.86377 | 7.14614 | 263 ft | 14 kts | 128° |
| 2026-04-20 05:24 | 50.86319 | 7.14727 | 265 ft | 13 kts | 129° |
| 2026-04-20 05:24 | 50.86262 | 7.14836 | 268 ft | 13 kts | 130° |
| 2026-04-20 05:24 | 50.86202 | 7.14934 | 269 ft | 12 kts | 135° |
| 2026-04-20 05:24 | 50.86142 | 7.15029 | 272 ft | 12 kts | 135° |
| 2026-04-20 05:25 | 50.86082 | 7.15119 | 274 ft | 12 kts | 140° |
| 2026-04-20 05:25 | 50.86019 | 7.15198 | 276 ft | 11 kts | 141° |
| 2026-04-20 05:25 | 50.85958 | 7.15275 | 280 ft | 11 kts | 142° |
| 2026-04-20 05:25 | 50.85898 | 7.15349 | 283 ft | 11 kts | 142° |
| 2026-04-20 05:26 | 50.85843 | 7.15427 | 286 ft | 10 kts | 138° |
| 2026-04-20 05:26 | 50.85790 | 7.15503 | 293 ft | 10 kts | 137° |
| 2026-04-20 05:26 | 50.85738 | 7.15577 | 293 ft | 10 kts | 137° |
| 2026-04-20 05:26 | 50.85689 | 7.15650 | 294 ft | 10 kts | 137° |
| 2026-04-20 05:27 | 50.85640 | 7.15722 | 298 ft | 9 kts | 136° |
| 2026-04-20 05:27 | 50.85592 | 7.15795 | 298 ft | 11 kts | 136° |
| 2026-04-20 05:27 | 50.85531 | 7.15888 | 303 ft | 14 kts | 135° |
| 2026-04-20 05:27 | 50.85492 | 7.16015 | 304 ft | 14 kts | 62° |
| 2026-04-20 05:28 | 50.85553 | 7.16129 | 305 ft | 13 kts | 50° |
| 2026-04-20 05:28 | 50.85614 | 7.16234 | 308 ft | 13 kts | 47° |
| 2026-04-20 05:28 | 50.85670 | 7.16322 | 308 ft | 7 kts | 18° |
| 2026-04-20 05:28 | 50.85716 | 7.16286 | 308 ft | 8 kts | 311° |
| 2026-04-20 05:29 | 50.85847 | 7.16072 | 307 ft | 70 kts | 316° |
| 2026-04-20 05:29 | 50.86441 | 7.15197 | 319 ft | 156 kts | 316° |
| 2026-04-20 05:29 | 50.87356 | 7.13853 | 927 ft | 189 kts | 317° |
| 2026-04-20 05:29 | 50.88343 | 7.12457 | 2147 ft | 190 kts | 322° |
| 2026-04-20 05:30 | 50.89473 | 7.11332 | 3139 ft | 197 kts | 346° |
| 2026-04-20 05:30 | 50.90830 | 7.11470 | 3954 ft | 202 kts | 20° |
| 2026-04-20 05:30 | 50.92112 | 7.12465 | 4827 ft | 208 kts | 27° |
| 2026-04-20 05:30 | 50.93306 | 7.13755 | 5803 ft | 212 kts | 45° |
| 2026-04-20 05:31 | 50.94173 | 7.15787 | 6385 ft | 239 kts | 59° |
| 2026-04-20 05:31 | 50.94954 | 7.18287 | 6886 ft | 262 kts | 62° |
| 2026-04-20 05:31 | 50.95754 | 7.20943 | 7705 ft | 271 kts | 62° |
| 2026-04-20 05:31 | 50.96593 | 7.23668 | 8623 ft | 278 kts | 61° |
| 2026-04-20 05:32 | 50.97464 | 7.26448 | 9540 ft | 285 kts | 60° |
| 2026-04-20 05:32 | 50.98349 | 7.29256 | 10385 ft | 292 kts | 60° |
| 2026-04-20 05:32 | 50.99291 | 7.32232 | 10812 ft | 315 kts | 61° |
| 2026-04-20 05:32 | 51.00314 | 7.35467 | 11179 ft | 337 kts | 61° |
| 2026-04-20 05:33 | 51.01358 | 7.38857 | 11941 ft | 345 kts | 65° |
| 2026-04-20 05:33 | 51.01898 | 7.42590 | 12823 ft | 353 kts | 90° |
| 2026-04-20 05:33 | 51.01404 | 7.46420 | 13775 ft | 357 kts | 108° |
| 2026-04-20 05:33 | 51.00574 | 7.50157 | 14574 ft | 362 kts | 110° |
| 2026-04-20 05:34 | 50.99721 | 7.53956 | 15289 ft | 368 kts | 108° |
| 2026-04-20 05:34 | 50.98937 | 7.57855 | 16036 ft | 374 kts | 107° |
| 2026-04-20 05:34 | 50.97427 | 7.65865 | 17531 ft | 384 kts | 106° |
| 2026-04-20 05:35 | 50.96643 | 7.69945 | 18270 ft | 389 kts | 107° |
| 2026-04-20 05:35 | 50.95836 | 7.74067 | 18923 ft | 394 kts | 107° |
| 2026-04-20 05:35 | 50.95009 | 7.78240 | 19587 ft | 398 kts | 107° |
| 2026-04-20 05:35 | 50.94129 | 7.82420 | 20244 ft | 402 kts | 111° |
| 2026-04-20 05:36 | 50.92846 | 7.86382 | 20876 ft | 406 kts | 123° |
| 2026-04-20 05:36 | 50.91217 | 7.90063 | 21513 ft | 410 kts | 127° |
| 2026-04-20 05:36 | 50.89497 | 7.93696 | 22113 ft | 415 kts | 127° |
| 2026-04-20 05:36 | 50.87809 | 7.97432 | 22712 ft | 419 kts | 125° |
| 2026-04-20 05:37 | 50.86179 | 8.01278 | 23304 ft | 423 kts | 123° |
| 2026-04-20 05:37 | 50.84554 | 8.05185 | 23865 ft | 427 kts | 124° |
| 2026-04-20 05:37 | 50.82703 | 8.08881 | 24327 ft | 430 kts | 137° |
| 2026-04-20 05:37 | 50.80324 | 8.11745 | 24800 ft | 431 kts | 150° |
| 2026-04-20 05:38 | 50.78610 | 8.13328 | 25121 ft | 432 kts | 153° |
| 2026-04-20 05:38 | 50.75948 | 8.15564 | 25570 ft | 435 kts | 155° |
| 2026-04-20 05:38 | 50.73258 | 8.17818 | 26008 ft | 440 kts | 154° |
| 2026-04-20 05:38 | 50.70598 | 8.20235 | 26444 ft | 444 kts | 150° |
| 2026-04-20 05:39 | 50.67974 | 8.22858 | 26873 ft | 448 kts | 149° |
| 2026-04-20 05:39 | 50.65354 | 8.25573 | 27303 ft | 452 kts | 148° |
| 2026-04-20 05:39 | 50.62719 | 8.28307 | 27712 ft | 455 kts | 149° |
| 2026-04-20 05:39 | 50.60055 | 8.31038 | 28122 ft | 459 kts | 149° |
| 2026-04-20 05:40 | 50.57362 | 8.33762 | 28518 ft | 462 kts | 149° |
| 2026-04-20 05:40 | 50.54637 | 8.36490 | 28895 ft | 466 kts | 150° |
| 2026-04-20 05:40 | 50.51889 | 8.39226 | 29270 ft | 469 kts | 150° |
| 2026-04-20 05:40 | 50.49121 | 8.41974 | 29627 ft | 473 kts | 150° |
| 2026-04-20 05:41 | 50.46330 | 8.44744 | 29976 ft | 476 kts | 150° |
| 2026-04-20 05:41 | 50.43521 | 8.47530 | 30311 ft | 479 kts | 150° |
| 2026-04-20 05:41 | 50.40695 | 8.50332 | 30561 ft | 483 kts | 150° |
| 2026-04-20 05:41 | 50.37845 | 8.53145 | 30853 ft | 484 kts | 151° |
| 2026-04-20 05:42 | 50.35525 | 8.55301 | 31134 ft | 484 kts | 153° |
| 2026-04-20 05:42 | 50.32571 | 8.57844 | 31530 ft | 483 kts | 155° |
| 2026-04-20 05:42 | 50.29598 | 8.60269 | 31917 ft | 482 kts | 156° |
| 2026-04-20 05:42 | 50.26612 | 8.62671 | 32266 ft | 483 kts | 156° |
| 2026-04-20 05:43 | 50.23628 | 8.65095 | 32589 ft | 484 kts | 155° |
| 2026-04-20 05:43 | 50.20651 | 8.67550 | 32949 ft | 484 kts | 155° |
| 2026-04-20 05:43 | 50.17688 | 8.70021 | 33318 ft | 484 kts | 155° |
| 2026-04-20 05:43 | 50.14714 | 8.72508 | 33675 ft | 484 kts | 155° |
| 2026-04-20 05:44 | 50.11746 | 8.74983 | 34021 ft | 485 kts | 155° |
| 2026-04-20 05:44 | 50.08734 | 8.77365 | 34158 ft | 486 kts | 160° |
| 2026-04-20 05:44 | 50.05549 | 8.79057 | 34147 ft | 480 kts | 174° |
| 2026-04-20 05:44 | 50.02275 | 8.79435 | 34162 ft | 467 kts | 188° |
| 2026-04-20 05:45 | 49.95983 | 8.77833 | 34153 ft | 456 kts | 197° |
| 2026-04-20 05:45 | 49.89672 | 8.76413 | 34149 ft | 459 kts | 192° |
| 2026-04-20 05:46 | 49.83318 | 8.75353 | 34146 ft | 458 kts | 193° |
| 2026-04-20 05:46 | 49.76999 | 8.74122 | 34143 ft | 458 kts | 194° |
| 2026-04-20 05:47 | 49.70680 | 8.72818 | 34144 ft | 459 kts | 194° |
| 2026-04-20 05:47 | 49.64347 | 8.71525 | 34139 ft | 459 kts | 194° |
| 2026-04-20 05:48 | 49.58005 | 8.70234 | 34149 ft | 460 kts | 195° |
| 2026-04-20 05:48 | 49.51655 | 8.68946 | 34158 ft | 461 kts | 194° |
| 2026-04-20 05:49 | 49.45152 | 8.69041 | 34151 ft | 480 kts | 174° |
| 2026-04-20 05:49 | 49.41927 | 8.70516 | 34153 ft | 490 kts | 163° |
| 2026-04-20 05:49 | 49.38795 | 8.72639 | 34166 ft | 493 kts | 160° |
| 2026-04-20 05:50 | 49.32567 | 8.77059 | 34152 ft | 491 kts | 163° |
| 2026-04-20 05:50 | 49.26219 | 8.80911 | 34137 ft | 490 kts | 165° |
| 2026-04-20 05:51 | 49.19847 | 8.84685 | 34117 ft | 491 kts | 165° |
| 2026-04-20 05:51 | 49.13495 | 8.88566 | 34111 ft | 492 kts | 164° |
| 2026-04-20 05:52 | 49.07150 | 8.92510 | 34115 ft | 492 kts | 164° |
| 2026-04-20 05:52 | 49.00802 | 8.96458 | 34113 ft | 493 kts | 164° |
| 2026-04-20 05:53 | 48.94450 | 9.00390 | 34114 ft | 493 kts | 164° |
| 2026-04-20 05:53 | 48.88089 | 9.04311 | 34118 ft | 493 kts | 165° |
| 2026-04-20 05:54 | 48.81724 | 9.08222 | 34120 ft | 494 kts | 165° |
| 2026-04-20 05:54 | 48.75351 | 9.12128 | 34122 ft | 494 kts | 165° |
| 2026-04-20 05:55 | 48.68973 | 9.16027 | 34124 ft | 494 kts | 165° |
| 2026-04-20 05:55 | 48.62594 | 9.19916 | 34135 ft | 494 kts | 165° |
| 2026-04-20 05:56 | 48.56212 | 9.23796 | 34121 ft | 495 kts | 165° |
| 2026-04-20 05:56 | 48.49823 | 9.27670 | 34123 ft | 495 kts | 165° |
| 2026-04-20 05:57 | 48.43422 | 9.31540 | 34102 ft | 496 kts | 165° |
| 2026-04-20 05:57 | 48.37013 | 9.35405 | 34097 ft | 496 kts | 165° |
| 2026-04-20 05:58 | 48.30605 | 9.39259 | 34100 ft | 496 kts | 165° |
| 2026-04-20 05:58 | 48.24198 | 9.43102 | 34096 ft | 496 kts | 165° |
| 2026-04-20 05:59 | 48.17775 | 9.46944 | 34098 ft | 497 kts | 165° |
| 2026-04-20 05:59 | 48.11356 | 9.50775 | 34100 ft | 497 kts | 165° |
| 2026-04-20 06:00 | 48.04950 | 9.54587 | 34106 ft | 497 kts | 165° |
| 2026-04-20 06:00 | 47.98633 | 9.58958 | 34092 ft | 505 kts | 156° |
| 2026-04-20 06:01 | 47.92710 | 9.64693 | 34094 ft | 511 kts | 147° |
| 2026-04-20 06:01 | 47.87378 | 9.70780 | 34111 ft | 511 kts | 147° |
| 2026-04-20 06:02 | 47.81668 | 9.77053 | 34106 ft | 509 kts | 149° |
| 2026-04-20 06:02 | 47.75852 | 9.83039 | 34106 ft | 508 kts | 150° |
| 2026-04-20 06:03 | 47.70007 | 9.88905 | 34108 ft | 507 kts | 150° |
| 2026-04-20 06:03 | 47.64162 | 9.94766 | 34102 ft | 507 kts | 150° |
| 2026-04-20 06:04 | 47.58334 | 10.00625 | 34096 ft | 506 kts | 150° |
| 2026-04-20 06:04 | 47.52508 | 10.06477 | 34095 ft | 506 kts | 150° |
| 2026-04-20 06:05 | 47.46676 | 10.12318 | 34085 ft | 506 kts | 150° |
| 2026-04-20 06:05 | 47.40841 | 10.18143 | 34081 ft | 506 kts | 150° |
| 2026-04-20 06:06 | 47.35015 | 10.23944 | 34062 ft | 505 kts | 150° |
| 2026-04-20 06:06 | 47.29213 | 10.29706 | 34095 ft | 502 kts | 150° |
| 2026-04-20 06:07 | 47.23423 | 10.35440 | 34082 ft | 500 kts | 150° |
| 2026-04-20 06:07 | 47.17654 | 10.41138 | 34075 ft | 499 kts | 150° |
| 2026-04-20 06:08 | 47.11889 | 10.46818 | 34063 ft | 499 kts | 150° |
| 2026-04-20 06:08 | 47.06087 | 10.52386 | 34064 ft | 498 kts | 154° |
| 2026-04-20 06:09 | 47.03001 | 10.54622 | 34046 ft | 489 kts | 167° |
| 2026-04-20 06:09 | 46.99757 | 10.55960 | 34079 ft | 482 kts | 174° |
| 2026-04-20 06:09 | 46.93210 | 10.58276 | 34047 ft | 489 kts | 169° |
| 2026-04-20 06:10 | 46.86741 | 10.61461 | 34047 ft | 492 kts | 168° |
| 2026-04-20 06:10 | 46.80202 | 10.64204 | 34043 ft | 487 kts | 173° |
| 2026-04-20 06:11 | 46.73619 | 10.66388 | 34022 ft | 485 kts | 174° |
| 2026-04-20 06:11 | 46.67051 | 10.68554 | 34007 ft | 483 kts | 173° |
| 2026-04-20 06:12 | 46.60536 | 10.70813 | 34040 ft | 480 kts | 173° |
| 2026-04-20 06:12 | 46.54042 | 10.73105 | 34011 ft | 480 kts | 173° |
| 2026-04-20 06:13 | 46.47549 | 10.75390 | 34018 ft | 480 kts | 173° |
| 2026-04-20 06:13 | 46.41069 | 10.77659 | 34031 ft | 478 kts | 173° |
| 2026-04-20 06:14 | 46.34589 | 10.79920 | 34026 ft | 480 kts | 173° |
| 2026-04-20 06:14 | 46.28146 | 10.82163 | 34030 ft | 480 kts | 173° |
| 2026-04-20 06:15 | 46.21593 | 10.84439 | 34040 ft | 481 kts | 173° |
| 2026-04-20 06:15 | 46.15109 | 10.86560 | 34041 ft | 481 kts | 174° |
| 2026-04-20 06:16 | 46.08536 | 10.88627 | 34030 ft | 479 kts | 174° |
| 2026-04-20 06:16 | 46.02025 | 10.90686 | 34032 ft | 480 kts | 174° |
| 2026-04-20 06:17 | 45.95475 | 10.92766 | 34010 ft | 483 kts | 174° |
| 2026-04-20 06:17 | 45.88949 | 10.94842 | 34013 ft | 484 kts | 174° |
| 2026-04-20 06:18 | 45.82374 | 10.96928 | 34017 ft | 484 kts | 173° |
| 2026-04-20 06:18 | 45.75801 | 10.99007 | 34014 ft | 484 kts | 174° |
| 2026-04-20 06:19 | 45.69227 | 11.01080 | 34011 ft | 484 kts | 173° |
| 2026-04-20 06:19 | 45.63713 | 11.02783 | 34008 ft | 482 kts | 175° |
| 2026-04-20 06:20 | 45.57117 | 11.03998 | 34004 ft | 476 kts | 181° |
| 2026-04-20 06:20 | 45.50524 | 11.04774 | 34000 ft | 475 kts | 182° |
| 2026-04-20 06:21 | 45.43937 | 11.05604 | 34001 ft | 475 kts | 181° |
| 2026-04-20 06:21 | 45.37358 | 11.06530 | 33998 ft | 475 kts | 180° |
| 2026-04-20 06:22 | 45.30775 | 11.07493 | 34002 ft | 476 kts | 180° |
| 2026-04-20 06:22 | 45.24189 | 11.08456 | 33994 ft | 476 kts | 180° |
| 2026-04-20 06:23 | 45.17595 | 11.09412 | 33993 ft | 476 kts | 180° |
| 2026-04-20 06:23 | 45.11001 | 11.10363 | 33996 ft | 477 kts | 180° |
| 2026-04-20 06:24 | 45.04401 | 11.11312 | 33995 ft | 477 kts | 180° |
| 2026-04-20 06:24 | 44.97803 | 11.12259 | 34003 ft | 477 kts | 180° |
| 2026-04-20 06:25 | 44.91208 | 11.13204 | 34008 ft | 476 kts | 180° |
| 2026-04-20 06:25 | 44.84613 | 11.14147 | 34019 ft | 476 kts | 180° |
| 2026-04-20 06:26 | 44.78027 | 11.15086 | 34009 ft | 475 kts | 180° |
| 2026-04-20 06:26 | 44.71449 | 11.16022 | 34005 ft | 475 kts | 179° |
| 2026-04-20 06:27 | 44.64878 | 11.16955 | 34001 ft | 474 kts | 179° |
| 2026-04-20 06:27 | 44.58314 | 11.17884 | 33994 ft | 474 kts | 179° |
| 2026-04-20 06:28 | 44.51765 | 11.18809 | 33990 ft | 473 kts | 179° |
| 2026-04-20 06:28 | 44.45218 | 11.19732 | 33992 ft | 473 kts | 179° |
| 2026-04-20 06:29 | 44.38675 | 11.20653 | 34000 ft | 472 kts | 179° |
| 2026-04-20 06:29 | 44.32138 | 11.21570 | 34012 ft | 472 kts | 179° |
| 2026-04-20 06:30 | 44.25619 | 11.22177 | 34015 ft | 468 kts | 184° |
| 2026-04-20 06:30 | 44.19119 | 11.22308 | 34016 ft | 466 kts | 185° |
| 2026-04-20 06:31 | 44.12629 | 11.22390 | 34021 ft | 466 kts | 184° |
| 2026-04-20 06:31 | 44.06142 | 11.22536 | 34015 ft | 466 kts | 184° |
| 2026-04-20 06:32 | 43.99669 | 11.22725 | 34017 ft | 465 kts | 184° |
| 2026-04-20 06:32 | 43.93202 | 11.22925 | 34026 ft | 465 kts | 184° |
| 2026-04-20 06:33 | 43.86727 | 11.23123 | 34027 ft | 465 kts | 183° |
| 2026-04-20 06:33 | 43.80252 | 11.23317 | 34015 ft | 465 kts | 183° |
| 2026-04-20 06:34 | 43.73823 | 11.23511 | 34015 ft | 465 kts | 183° |
| 2026-04-20 06:35 | 43.64117 | 11.23801 | 34011 ft | 465 kts | 183° |
| 2026-04-20 06:35 | 43.57646 | 11.23994 | 34029 ft | 465 kts | 183° |
| 2026-04-20 06:36 | 43.51173 | 11.24186 | 34029 ft | 465 kts | 183° |
| 2026-04-20 06:36 | 43.44699 | 11.24377 | 34023 ft | 465 kts | 183° |
| 2026-04-20 06:37 | 43.38228 | 11.24569 | 34023 ft | 465 kts | 183° |
| 2026-04-20 06:37 | 43.31763 | 11.24761 | 34024 ft | 464 kts | 183° |
| 2026-04-20 06:38 | 43.25309 | 11.24951 | 34035 ft | 464 kts | 183° |
| 2026-04-20 06:38 | 43.18862 | 11.25141 | 34036 ft | 463 kts | 183° |
| 2026-04-20 06:39 | 43.12418 | 11.25330 | 34033 ft | 463 kts | 183° |
| 2026-04-20 06:39 | 43.05978 | 11.25518 | 34028 ft | 463 kts | 183° |
| 2026-04-20 06:40 | 42.99534 | 11.25706 | 34023 ft | 463 kts | 183° |
| 2026-04-20 06:40 | 42.93086 | 11.25895 | 34012 ft | 463 kts | 183° |
| 2026-04-20 06:41 | 42.86638 | 11.26082 | 34006 ft | 464 kts | 183° |
| 2026-04-20 06:41 | 42.80184 | 11.26270 | 34003 ft | 464 kts | 183° |
| 2026-04-20 06:42 | 42.73725 | 11.26457 | 33993 ft | 465 kts | 183° |
| 2026-04-20 06:42 | 42.67256 | 11.26644 | 34032 ft | 465 kts | 184° |
| 2026-04-20 06:43 | 42.60779 | 11.26830 | 34025 ft | 465 kts | 184° |
| 2026-04-20 06:43 | 42.54308 | 11.27017 | 34027 ft | 466 kts | 184° |
| 2026-04-20 06:44 | 42.47825 | 11.27203 | 34031 ft | 466 kts | 184° |
| 2026-04-20 06:44 | 42.41343 | 11.27389 | 34020 ft | 466 kts | 184° |
| 2026-04-20 06:45 | 42.34858 | 11.27575 | 34020 ft | 466 kts | 184° |
| 2026-04-20 06:45 | 42.28377 | 11.27761 | 34020 ft | 466 kts | 184° |
| 2026-04-20 06:46 | 42.21890 | 11.27945 | 34018 ft | 466 kts | 184° |
| 2026-04-20 06:46 | 42.15401 | 11.28130 | 34016 ft | 467 kts | 184° |
| 2026-04-20 06:47 | 42.08899 | 11.28314 | 34015 ft | 468 kts | 184° |
| 2026-04-20 06:47 | 42.02388 | 11.28498 | 34012 ft | 468 kts | 184° |
| 2026-04-20 06:48 | 41.95866 | 11.28682 | 34012 ft | 469 kts | 184° |
| 2026-04-20 06:48 | 41.89344 | 11.28866 | 34011 ft | 470 kts | 185° |
| 2026-04-20 06:49 | 41.82783 | 11.29051 | 34019 ft | 471 kts | 185° |
| 2026-04-20 06:49 | 41.76227 | 11.29236 | 34026 ft | 472 kts | 185° |
| 2026-04-20 06:50 | 41.69656 | 11.29420 | 34024 ft | 473 kts | 185° |
| 2026-04-20 06:50 | 41.63076 | 11.29603 | 34024 ft | 473 kts | 185° |
| 2026-04-20 06:51 | 41.56485 | 11.29788 | 34026 ft | 474 kts | 185° |
| 2026-04-20 06:51 | 41.49895 | 11.29972 | 34030 ft | 474 kts | 185° |
| 2026-04-20 06:52 | 41.43303 | 11.30155 | 34032 ft | 474 kts | 185° |
| 2026-04-20 06:52 | 41.36717 | 11.30338 | 34030 ft | 473 kts | 185° |
| 2026-04-20 06:53 | 41.30139 | 11.30521 | 34031 ft | 472 kts | 185° |
| 2026-04-20 06:53 | 41.23571 | 11.30703 | 34032 ft | 472 kts | 185° |
| 2026-04-20 06:54 | 41.17009 | 11.30884 | 34032 ft | 471 kts | 185° |
| 2026-04-20 06:54 | 41.10460 | 11.31064 | 34029 ft | 471 kts | 185° |
| 2026-04-20 06:55 | 41.03913 | 11.31243 | 34035 ft | 470 kts | 185° |
| 2026-04-20 06:55 | 40.97367 | 11.31423 | 34033 ft | 470 kts | 185° |
| 2026-04-20 06:56 | 40.90828 | 11.31601 | 34033 ft | 470 kts | 185° |
| 2026-04-20 06:56 | 40.84291 | 11.31780 | 34033 ft | 470 kts | 185° |
| 2026-04-20 06:57 | 40.77752 | 11.31958 | 34035 ft | 470 kts | 185° |
| 2026-04-20 06:57 | 40.71221 | 11.32135 | 34034 ft | 469 kts | 185° |
| 2026-04-20 06:58 | 40.64695 | 11.32313 | 34029 ft | 469 kts | 185° |
| 2026-04-20 06:58 | 40.58180 | 11.32490 | 34036 ft | 468 kts | 185° |
| 2026-04-20 06:59 | 40.51675 | 11.32666 | 34034 ft | 467 kts | 185° |
| 2026-04-20 06:59 | 40.45183 | 11.32841 | 34036 ft | 466 kts | 185° |
| 2026-04-20 07:00 | 40.39796 | 11.32986 | 34044 ft | 466 kts | 185° |
| 2026-04-20 07:00 | 40.33317 | 11.33161 | 34042 ft | 465 kts | 185° |
| 2026-04-20 07:01 | 40.26848 | 11.33334 | 34035 ft | 465 kts | 184° |
| 2026-04-20 07:01 | 40.20385 | 11.33507 | 34040 ft | 464 kts | 184° |
| 2026-04-20 07:02 | 40.13936 | 11.33679 | 34037 ft | 464 kts | 184° |
| 2026-04-20 07:02 | 40.07489 | 11.33852 | 34047 ft | 463 kts | 184° |
| 2026-04-20 07:03 | 40.01042 | 11.34023 | 34050 ft | 463 kts | 184° |
| 2026-04-20 07:03 | 39.94597 | 11.34194 | 34046 ft | 463 kts | 184° |
| 2026-04-20 07:04 | 39.88154 | 11.34365 | 34049 ft | 463 kts | 184° |
| 2026-04-20 07:04 | 39.81703 | 11.34536 | 34046 ft | 463 kts | 184° |
| 2026-04-20 07:05 | 39.75253 | 11.34707 | 34050 ft | 464 kts | 184° |
| 2026-04-20 07:05 | 39.68803 | 11.34877 | 34050 ft | 464 kts | 184° |
| 2026-04-20 07:06 | 39.62349 | 11.35047 | 34053 ft | 464 kts | 184° |
| 2026-04-20 07:06 | 39.55891 | 11.35217 | 34061 ft | 464 kts | 184° |
| 2026-04-20 07:07 | 39.49432 | 11.35387 | 34056 ft | 464 kts | 184° |
| 2026-04-20 07:07 | 39.42968 | 11.35556 | 34051 ft | 464 kts | 184° |
| 2026-04-20 07:08 | 39.36504 | 11.35725 | 34061 ft | 464 kts | 184° |
| 2026-04-20 07:08 | 39.30046 | 11.35894 | 34060 ft | 464 kts | 184° |
| 2026-04-20 07:09 | 39.23631 | 11.36061 | 34058 ft | 464 kts | 184° |
| 2026-04-20 07:09 | 39.17179 | 11.36229 | 34056 ft | 463 kts | 184° |
| 2026-04-20 07:10 | 39.10733 | 11.36396 | 34063 ft | 463 kts | 184° |
| 2026-04-20 07:10 | 39.04296 | 11.36563 | 34069 ft | 463 kts | 184° |
| 2026-04-20 07:11 | 38.97865 | 11.36730 | 34070 ft | 462 kts | 184° |
| 2026-04-20 07:11 | 38.91441 | 11.36896 | 34073 ft | 461 kts | 184° |
| 2026-04-20 07:12 | 38.84984 | 11.37062 | 34074 ft | 461 kts | 184° |
| 2026-04-20 07:12 | 38.78582 | 11.37227 | 34076 ft | 460 kts | 184° |
| 2026-04-20 07:13 | 38.72226 | 11.37390 | 34072 ft | 459 kts | 184° |
| 2026-04-20 07:13 | 38.65846 | 11.37553 | 34073 ft | 459 kts | 184° |
| 2026-04-20 07:14 | 38.59429 | 11.37718 | 34077 ft | 458 kts | 184° |
| 2026-04-20 07:14 | 38.53099 | 11.37879 | 34083 ft | 457 kts | 184° |
| 2026-04-20 07:15 | 38.46740 | 11.38041 | 34074 ft | 457 kts | 184° |
| 2026-04-20 07:15 | 38.40344 | 11.38204 | 34082 ft | 457 kts | 184° |
| 2026-04-20 07:16 | 38.34037 | 11.38364 | 34082 ft | 456 kts | 183° |
| 2026-04-20 07:16 | 38.27689 | 11.38525 | 34086 ft | 456 kts | 183° |
| 2026-04-20 07:17 | 38.21301 | 11.38686 | 34082 ft | 456 kts | 183° |
| 2026-04-20 07:17 | 38.14954 | 11.38847 | 34083 ft | 456 kts | 183° |
| 2026-04-20 07:18 | 38.08608 | 11.39007 | 34085 ft | 456 kts | 183° |
| 2026-04-20 07:18 | 38.02264 | 11.39167 | 34086 ft | 456 kts | 183° |
| 2026-04-20 07:19 | 37.95924 | 11.39326 | 34087 ft | 456 kts | 183° |
| 2026-04-20 07:19 | 37.89698 | 11.38554 | 34094 ft | 445 kts | 199° |
| 2026-04-20 07:20 | 37.83806 | 11.36356 | 34083 ft | 445 kts | 200° |
| 2026-04-20 07:20 | 37.77747 | 11.34639 | 34089 ft | 447 kts | 195° |
| 2026-04-20 07:21 | 37.71654 | 11.33042 | 33821 ft | 447 kts | 197° |
| 2026-04-20 07:21 | 37.68626 | 11.32174 | 33550 ft | 446 kts | 197° |
| 2026-04-20 07:21 | 37.65600 | 11.31276 | 33281 ft | 447 kts | 197° |
| 2026-04-20 07:21 | 37.62571 | 11.30370 | 33013 ft | 448 kts | 197° |
| 2026-04-20 07:22 | 37.59537 | 11.29468 | 32748 ft | 449 kts | 197° |
| 2026-04-20 07:22 | 37.56492 | 11.28567 | 32490 ft | 450 kts | 197° |
| 2026-04-20 07:22 | 37.53444 | 11.27664 | 32228 ft | 451 kts | 197° |
| 2026-04-20 07:22 | 37.50390 | 11.26762 | 31976 ft | 451 kts | 197° |
| 2026-04-20 07:23 | 37.47331 | 11.25857 | 31711 ft | 452 kts | 197° |
| 2026-04-20 07:23 | 37.44271 | 11.24954 | 31466 ft | 452 kts | 196° |
| 2026-04-20 07:23 | 37.41215 | 11.24052 | 31216 ft | 451 kts | 196° |
| 2026-04-20 07:23 | 37.38160 | 11.23152 | 30970 ft | 450 kts | 196° |
| 2026-04-20 07:24 | 37.35116 | 11.22256 | 30718 ft | 448 kts | 196° |
| 2026-04-20 07:24 | 37.32085 | 11.21364 | 30473 ft | 446 kts | 196° |
| 2026-04-20 07:24 | 37.29069 | 11.20477 | 30228 ft | 444 kts | 196° |
| 2026-04-20 07:24 | 37.26063 | 11.19594 | 29954 ft | 442 kts | 196° |
| 2026-04-20 07:25 | 37.23073 | 11.18716 | 29672 ft | 440 kts | 196° |
| 2026-04-20 07:25 | 37.20097 | 11.17843 | 29390 ft | 438 kts | 196° |
| 2026-04-20 07:25 | 37.17135 | 11.16974 | 29116 ft | 436 kts | 196° |
| 2026-04-20 07:25 | 37.14186 | 11.16110 | 28841 ft | 434 kts | 195° |
| 2026-04-20 07:26 | 37.11253 | 11.15251 | 28570 ft | 432 kts | 195° |
| 2026-04-20 07:26 | 37.08329 | 11.14396 | 28297 ft | 430 kts | 195° |
| 2026-04-20 07:26 | 37.05420 | 11.13545 | 28031 ft | 428 kts | 195° |
| 2026-04-20 07:26 | 37.02523 | 11.12698 | 27766 ft | 427 kts | 195° |
| 2026-04-20 07:27 | 36.99638 | 11.11856 | 27504 ft | 425 kts | 195° |
| 2026-04-20 07:27 | 36.96768 | 11.11019 | 27246 ft | 423 kts | 195° |
| 2026-04-20 07:27 | 36.93913 | 11.10186 | 26868 ft | 418 kts | 195° |
| 2026-04-20 07:27 | 36.91109 | 11.09371 | 26384 ft | 409 kts | 195° |
| 2026-04-20 07:28 | 36.88365 | 11.08568 | 25863 ft | 401 kts | 196° |
| 2026-04-20 07:28 | 36.85677 | 11.07748 | 25372 ft | 394 kts | 196° |
| 2026-04-20 07:28 | 36.83042 | 11.06927 | 24869 ft | 388 kts | 197° |
| 2026-04-20 07:28 | 36.80442 | 11.06115 | 24402 ft | 382 kts | 197° |
| 2026-04-20 07:29 | 36.77878 | 11.05316 | 23924 ft | 379 kts | 197° |
| 2026-04-20 07:29 | 36.75330 | 11.04527 | 23387 ft | 375 kts | 197° |
| 2026-04-20 07:29 | 36.72798 | 11.03747 | 22856 ft | 376 kts | 196° |
| 2026-04-20 07:29 | 36.70220 | 11.02952 | 22350 ft | 387 kts | 196° |
| 2026-04-20 07:30 | 36.67592 | 11.02154 | 21837 ft | 387 kts | 196° |
| 2026-04-20 07:30 | 36.64995 | 11.01376 | 21321 ft | 380 kts | 196° |
| 2026-04-20 07:30 | 36.62451 | 11.00619 | 20838 ft | 373 kts | 196° |
| 2026-04-20 07:30 | 36.59953 | 10.99874 | 20362 ft | 366 kts | 196° |
| 2026-04-20 07:31 | 36.57493 | 10.99140 | 19895 ft | 360 kts | 196° |
| 2026-04-20 07:31 | 36.55072 | 10.98416 | 19439 ft | 357 kts | 196° |
| 2026-04-20 07:31 | 36.52663 | 10.97694 | 18984 ft | 355 kts | 196° |
| 2026-04-20 07:31 | 36.50265 | 10.96975 | 18521 ft | 357 kts | 196° |
| 2026-04-20 07:32 | 36.47811 | 10.96239 | 18000 ft | 367 kts | 195° |
| 2026-04-20 07:32 | 36.45328 | 10.95495 | 17481 ft | 366 kts | 195° |
| 2026-04-20 07:32 | 36.42847 | 10.94755 | 16978 ft | 358 kts | 195° |
| 2026-04-20 07:32 | 36.40447 | 10.94040 | 16505 ft | 351 kts | 195° |
| 2026-04-20 07:33 | 36.38095 | 10.93339 | 16041 ft | 344 kts | 195° |
| 2026-04-20 07:33 | 36.35785 | 10.92651 | 15600 ft | 338 kts | 195° |
| 2026-04-20 07:33 | 36.33545 | 10.91984 | 15168 ft | 333 kts | 195° |
| 2026-04-20 07:33 | 36.31305 | 10.91317 | 14568 ft | 332 kts | 195° |
| 2026-04-20 07:34 | 36.29001 | 10.90630 | 13745 ft | 339 kts | 194° |
| 2026-04-20 07:34 | 36.26701 | 10.89946 | 13033 ft | 339 kts | 195° |
| 2026-04-20 07:34 | 36.24414 | 10.89267 | 12443 ft | 336 kts | 195° |
| 2026-04-20 07:35 | 36.20004 | 10.87961 | 11829 ft | 315 kts | 195° |
| 2026-04-20 07:35 | 36.17904 | 10.87339 | 11599 ft | 307 kts | 195° |
| 2026-04-20 07:35 | 36.15869 | 10.86736 | 11363 ft | 304 kts | 195° |
| 2026-04-20 07:35 | 36.13778 | 10.86115 | 11116 ft | 309 kts | 195° |
| 2026-04-20 07:36 | 36.11652 | 10.85483 | 10826 ft | 327 kts | 195° |
| 2026-04-20 07:36 | 36.09440 | 10.84826 | 10574 ft | 321 kts | 195° |
| 2026-04-20 07:36 | 36.07320 | 10.84201 | 10437 ft | 306 kts | 195° |
| 2026-04-20 07:36 | 36.05302 | 10.83606 | 10313 ft | 291 kts | 195° |
| 2026-04-20 07:37 | 36.03376 | 10.83038 | 10202 ft | 278 kts | 195° |
| 2026-04-20 07:37 | 36.01532 | 10.82495 | 10100 ft | 266 kts | 195° |
| 2026-04-20 07:37 | 35.99744 | 10.81963 | 9845 ft | 265 kts | 197° |
| 2026-04-20 07:37 | 35.98083 | 10.80954 | 9380 ft | 271 kts | 226° |
| 2026-04-20 07:38 | 35.97104 | 10.79009 | 9072 ft | 269 kts | 256° |
| 2026-04-20 07:38 | 35.96961 | 10.76772 | 8867 ft | 255 kts | 277° |
| 2026-04-20 07:38 | 35.97147 | 10.74680 | 8748 ft | 236 kts | 275° |
| 2026-04-20 07:38 | 35.97136 | 10.72720 | 8632 ft | 221 kts | 266° |
| 2026-04-20 07:39 | 35.96916 | 10.70909 | 8516 ft | 207 kts | 260° |
| 2026-04-20 07:39 | 35.96607 | 10.69229 | 8340 ft | 196 kts | 258° |
| 2026-04-20 07:39 | 35.96261 | 10.67613 | 8031 ft | 194 kts | 256° |
| 2026-04-20 07:39 | 35.95850 | 10.66027 | 7690 ft | 194 kts | 253° |
| 2026-04-20 07:40 | 35.95366 | 10.64481 | 7369 ft | 193 kts | 250° |
| 2026-04-20 07:40 | 35.94807 | 10.62979 | 7037 ft | 193 kts | 246° |
| 2026-04-20 07:40 | 35.94174 | 10.61525 | 6728 ft | 192 kts | 243° |
| 2026-04-20 07:40 | 35.93476 | 10.60134 | 6454 ft | 191 kts | 240° |
| 2026-04-20 07:41 | 35.92709 | 10.58796 | 6196 ft | 190 kts | 236° |
| 2026-04-20 07:41 | 35.91892 | 10.57545 | 5985 ft | 184 kts | 232° |
| 2026-04-20 07:41 | 35.91046 | 10.56396 | 5779 ft | 177 kts | 229° |
| 2026-04-20 07:41 | 35.90181 | 10.55349 | 5568 ft | 171 kts | 226° |
| 2026-04-20 07:42 | 35.89585 | 10.54693 | 5434 ft | 169 kts | 224° |
| 2026-04-20 07:42 | 35.88678 | 10.53781 | 5254 ft | 168 kts | 221° |
| 2026-04-20 07:42 | 35.87732 | 10.52930 | 5079 ft | 169 kts | 217° |
| 2026-04-20 07:42 | 35.86746 | 10.52140 | 4904 ft | 170 kts | 214° |
| 2026-04-20 07:43 | 35.85720 | 10.51415 | 4722 ft | 170 kts | 211° |
| 2026-04-20 07:43 | 35.84661 | 10.50758 | 4536 ft | 170 kts | 208° |
| 2026-04-20 07:43 | 35.83575 | 10.50175 | 4344 ft | 170 kts | 204° |
| 2026-04-20 07:43 | 35.82468 | 10.49669 | 4158 ft | 170 kts | 201° |
| 2026-04-20 07:44 | 35.81343 | 10.49239 | 3969 ft | 169 kts | 198° |
| 2026-04-20 07:44 | 35.80204 | 10.48886 | 3786 ft | 168 kts | 195° |
| 2026-04-20 07:44 | 35.79056 | 10.48611 | 3616 ft | 167 kts | 191° |
| 2026-04-20 07:44 | 35.77931 | 10.48419 | 3528 ft | 160 kts | 188° |
| 2026-04-20 07:45 | 35.76828 | 10.48302 | 3457 ft | 159 kts | 186° |
| 2026-04-20 07:45 | 35.75710 | 10.48254 | 3397 ft | 163 kts | 182° |
| 2026-04-20 07:45 | 35.74568 | 10.48279 | 3335 ft | 166 kts | 180° |
| 2026-04-20 07:45 | 35.73418 | 10.48379 | 3244 ft | 165 kts | 176° |
| 2026-04-20 07:46 | 35.72286 | 10.48540 | 3147 ft | 163 kts | 174° |
| 2026-04-20 07:46 | 35.71166 | 10.48766 | 3056 ft | 163 kts | 168° |
| 2026-04-20 07:46 | 35.70311 | 10.49634 | 3028 ft | 170 kts | 114° |
| 2026-04-20 07:46 | 35.70289 | 10.51099 | 3033 ft | 176 kts | 83° |
| 2026-04-20 07:47 | 35.70487 | 10.52582 | 3015 ft | 174 kts | 82° |
| 2026-04-20 07:47 | 35.70699 | 10.54052 | 3030 ft | 176 kts | 82° |
| 2026-04-20 07:47 | 35.70953 | 10.55539 | 3030 ft | 178 kts | 77° |
| 2026-04-20 07:47 | 35.71278 | 10.56998 | 2819 ft | 172 kts | 76° |
| 2026-04-20 07:48 | 35.71607 | 10.58360 | 2593 ft | 161 kts | 76° |
| 2026-04-20 07:48 | 35.71913 | 10.59608 | 2433 ft | 147 kts | 77° |
| 2026-04-20 07:48 | 35.72207 | 10.60806 | 2224 ft | 147 kts | 77° |
| 2026-04-20 07:48 | 35.72499 | 10.62002 | 2044 ft | 145 kts | 77° |
| 2026-04-20 07:49 | 35.72789 | 10.63182 | 1830 ft | 143 kts | 77° |
| 2026-04-20 07:49 | 35.73078 | 10.64362 | 1649 ft | 145 kts | 77° |
| 2026-04-20 07:49 | 35.73368 | 10.65543 | 1451 ft | 143 kts | 76° |
| 2026-04-20 07:49 | 35.73653 | 10.66705 | 1265 ft | 142 kts | 76° |
| 2026-04-20 07:50 | 35.73936 | 10.67856 | 1080 ft | 139 kts | 77° |
| 2026-04-20 07:50 | 35.74212 | 10.68982 | 906 ft | 136 kts | 76° |
| 2026-04-20 07:50 | 35.74480 | 10.70071 | 712 ft | 132 kts | 76° |
| 2026-04-20 07:50 | 35.74742 | 10.71136 | 544 ft | 131 kts | 76° |
| 2026-04-20 07:51 | 35.75008 | 10.72222 | 367 ft | 131 kts | 75° |
| 2026-04-20 07:51 | 35.75270 | 10.73277 | 240 ft | 131 kts | 73° |
| 2026-04-20 07:51 | 35.75549 | 10.74347 | 50 ft | 129 kts | 72° |
| 2026-04-20 07:51 | 35.75799 | 10.75388 | 20 ft | 122 kts | 73° |
| 2026-04-20 07:52 | 35.75921 | 10.75898 | 15 ft | 34 kts | 73° |
| 2026-04-20 07:52 | 35.75981 | 10.76149 | 15 ft | 14 kts | 73° |
| 2026-04-20 07:52 | 35.76031 | 10.76242 | 16 ft | 14 kts | 6° |
| 2026-04-20 07:52 | 35.76119 | 10.76209 | 17 ft | 13 kts | 319° |
| 2026-04-20 07:53 | 35.76109 | 10.76108 | 16 ft | 13 kts | 245° |
| 2026-04-20 07:53 | 35.76089 | 10.76003 | 16 ft | 13 kts | 259° |
| 2026-04-20 07:53 | 35.76063 | 10.75902 | 16 ft | 12 kts | 243° |
| 2026-04-20 07:53 | 35.76026 | 10.75807 | 16 ft | 12 kts | 245° |
| 2026-04-20 07:54 | 35.75995 | 10.75713 | 16 ft | 12 kts | 253° |
| 2026-04-20 07:54 | 35.75971 | 10.75617 | 16 ft | 12 kts | 253° |
| 2026-04-20 07:54 | 35.75971 | 10.75549 | 16 ft | 7 kts | 315° |
| 2026-04-20 07:54 | 35.76017 | 10.75536 | 18 ft | 7 kts | 345° |
| 2026-04-20 07:55 | 35.76026 | 10.75533 | 16 ft | 0 kts | 345° |
| 2026-04-20 07:55 | 35.76027 | 10.75533 | 16 ft | 0 kts | 345° |
| 2026-04-20 07:55 | 35.76029 | 10.75532 | 16 ft | 0 kts | 345° |
| 2026-04-20 07:56 | 35.76032 | 10.75531 | 16 ft | 0 kts | 345° |